Terminal Aerodrome Forecast
Issued by NWS Pocatello, ID

Home | Current Version | Previous Version | Text Only | Print | Product List | Glossary On
Versions: 1 2 3 4 5 6 7 8 9 10 11 12 13 14 15
721
FTUS45 KPIH 261348 AAA
TAFPIH
TAF AMD
KPIH 261348Z 2614/2712 21011KT 6SM -TSRA SCT070 BKN090CB
     FM261500 22010KT P6SM VCTS SCT080 BKN100CB
     FM261800 27009KT P6SM VCTS SCT060CB BKN100 OVC200
     FM262100 27007KT P6SM -SHRA VCTS SCT060CB OVC090
     FM270500 22007KT P6SM VCSH BKN090=

USA.gov is the U.S. government's official web portal to all federal, state and local government web resources and services.